Time;durP1;ratioP1;P1;durP2;ratioP2;P2;SDS_P1;SDS_P2;PMS_P1;PMS_P2;Temp;Humidity;BMP_temperature;BMP_pressure;BME280_temperature;BME280_humidity;BME280_pressure;Samples;Min_cycle;Max_cycle;Signal;HPM_P1;HPM_P2
2021/04/17 00:01:47;;;;;;;3.40;2.00;;;;;;;;;;5012232;28;20222;-79
2021/04/17 00:04:13;;;;;;;3.47;2.23;;;;;;;;;;5013093;28;20587;-77
2021/04/17 00:06:39;;;;;;;4.67;2.50;;;;;;;;;;5005639;28;20190;-76
2021/04/17 00:09:11;;;;;;;4.20;2.00;;;;;;;;;;4999776;28;20222;-77
2021/04/17 00:11:38;;;;;;;4.50;2.30;;;;;;;;;;5007896;28;20224;-77
2021/04/17 00:14:10;;;;;;;3.93;2.33;;;;;;;;;;5011355;28;20191;-77
2021/04/17 00:16:35;;;;;;;3.97;2.00;;;;;;;;;;5001008;28;20203;-77
2021/04/17 00:19:01;;;;;;;3.13;2.00;;;;;;;;;;4998886;28;20215;-76
2021/04/17 00:21:26;;;;;;;5.63;2.33;;;;;;;;;;5001579;28;20231;-77
2021/04/17 00:23:52;;;;;;;4.73;2.10;;;;;;;;;;5013248;28;20792;-77
2021/04/17 00:26:17;;;;;;;4.17;2.13;;;;;;;;;;5008348;28;20180;-77
2021/04/17 00:28:43;;;;;;;6.23;2.60;;;;;;;;;;5005505;28;20278;-77
2021/04/17 00:31:08;;;;;;;3.87;2.17;;;;;;;;;;5011995;28;20192;-78
2021/04/17 00:33:33;;;;;;;4.80;2.33;;;;;;;;;;5009303;28;20188;-77
2021/04/17 00:35:59;;;;;;;3.27;1.90;;;;;;;;;;5009691;28;20695;-77
2021/04/17 00:38:24;;;;;;;5.03;2.20;;;;;;;;;;5004078;28;20194;-77
2021/04/17 00:40:50;;;;;;;4.83;2.17;;;;;;;;;;5008010;28;20593;-77
2021/04/17 00:43:15;;;;;;;4.63;2.40;;;;;;;;;;5010157;28;20180;-76
2021/04/17 00:45:41;;;;;;;4.73;2.10;;;;;;;;;;5007626;28;20183;-77
2021/04/17 00:48:06;;;;;;;4.90;2.10;;;;;;;;;;5003363;28;20191;-77
2021/04/17 00:50:32;;;;;;;3.93;2.30;;;;;;;;;;5004169;28;20208;-77
2021/04/17 00:52:57;;;;;;;2.70;2.13;;;;;;;;;;5010078;28;20192;-77
2021/04/17 00:55:23;;;;;;;6.77;2.10;;;;;;;;;;5009230;28;20257;-77
2021/04/17 00:57:48;;;;;;;3.33;1.73;;;;;;;;;;5005122;28;20635;-77
2021/04/17 01:00:14;;;;;;;4.20;2.40;;;;;;;;;;5007225;28;20233;-77
2021/04/17 01:02:49;;;;;;;2.43;1.83;;;;;;;;;;5006487;28;20322;-77
2021/04/17 01:05:16;;;;;;;4.77;2.30;;;;;;;;;;5010164;28;20662;-77
2021/04/17 01:07:50;;;;;;;6.13;2.30;;;;;;;;;;5007207;28;20195;-77
2021/04/17 01:10:23;;;;;;;4.00;2.00;;;;;;;;;;4999483;28;20217;-77
2021/04/17 01:12:55;;;;;;;5.57;2.10;;;;;;;;;;4999044;28;20184;-77
2021/04/17 01:15:22;;;;;;;5.17;2.23;;;;;;;;;;5001111;28;20215;-77
2021/04/17 01:17:50;;;;;;;6.40;2.10;;;;;;;;;;5006216;28;20187;-77
2021/04/17 01:20:21;;;;;;;6.67;2.50;;;;;;;;;;5002376;28;20212;-77
2021/04/17 01:23:06;;;;;;;4.17;2.40;;;;;;;;;;5004661;28;20188;-77
2021/04/17 01:26:00;;;;;;;3.67;2.33;;;;;;;;;;5006665;28;20245;-77
2021/04/17 01:28:31;;;;;;;3.53;2.40;;;;;;;;;;5003192;28;20207;-77
2021/04/17 01:30:57;;;;;;;3.43;2.10;;;;;;;;;;5006412;28;20188;-77
2021/04/17 01:33:27;;;;;;;4.80;2.20;;;;;;;;;;5001459;28;20201;-77
2021/04/17 01:35:53;;;;;;;3.13;2.20;;;;;;;;;;5004317;28;20219;-75
2021/04/17 01:38:25;;;;;;;7.27;2.67;;;;;;;;;;5021843;28;20248;-77
2021/04/17 01:40:58;;;;;;;4.43;2.50;;;;;;;;;;5002492;28;20527;-76
2021/04/17 01:43:27;;;;;;;5.23;2.30;;;;;;;;;;5008448;28;20183;-77
2021/04/17 01:45:54;;;;;;;4.00;2.70;;;;;;;;;;5002534;28;20188;-77
2021/04/17 01:48:20;;;;;;;6.27;3.20;;;;;;;;;;4995979;28;20191;-76
2021/04/17 01:50:47;;;;;;;5.30;2.37;;;;;;;;;;5001209;28;20195;-77
2021/04/17 01:53:18;;;;;;;4.70;2.80;;;;;;;;;;5001351;28;20224;-76
2021/04/17 01:55:45;;;;;;;5.17;2.90;;;;;;;;;;5001865;28;20218;-77
2021/04/17 01:58:18;;;;;;;4.77;2.60;;;;;;;;;;5007290;28;20569;-77
2021/04/17 02:00:44;;;;;;;5.83;2.63;;;;;;;;;;5003931;28;20222;-77
2021/04/17 02:03:09;;;;;;;6.03;2.40;;;;;;;;;;5002798;28;20659;-77
2021/04/17 02:05:34;;;;;;;4.90;2.50;;;;;;;;;;5008719;28;20190;-76
2021/04/17 02:08:00;;;;;;;3.80;2.43;;;;;;;;;;5007919;28;20707;-77
2021/04/17 02:10:25;;;;;;;5.03;2.90;;;;;;;;;;5003180;28;20265;-77
2021/04/17 02:12:50;;;;;;;5.43;2.70;;;;;;;;;;5003975;28;20290;-77
2021/04/17 02:15:16;;;;;;;6.17;2.60;;;;;;;;;;5001975;28;20210;-77
2021/04/17 02:17:51;;;;;;;3.87;2.67;;;;;;;;;;5002637;28;20524;-76
2021/04/17 02:20:32;;;;;;;3.67;2.40;;;;;;;;;;5008810;28;20245;-77
2021/04/17 02:22:57;;;;;;;5.67;2.40;;;;;;;;;;5000765;28;20196;-77
2021/04/17 02:25:22;;;;;;;3.40;2.03;;;;;;;;;;5000439;28;20275;-77
2021/04/17 02:27:48;;;;;;;3.27;2.27;;;;;;;;;;4999318;28;20192;-77
2021/04/17 02:30:14;;;;;;;4.50;2.40;;;;;;;;;;5008088;28;20215;-77
2021/04/17 02:32:39;;;;;;;5.60;2.47;;;;;;;;;;5000962;28;20179;-77
2021/04/17 02:35:05;;;;;;;4.27;2.40;;;;;;;;;;5006517;28;20702;-77
2021/04/17 02:37:30;;;;;;;3.13;2.23;;;;;;;;;;5006794;28;20183;-76
2021/04/17 02:39:55;;;;;;;4.10;2.30;;;;;;;;;;5002622;28;20249;-76
2021/04/17 02:42:21;;;;;;;4.50;2.20;;;;;;;;;;5005089;28;20694;-77
2021/04/17 02:44:46;;;;;;;5.50;2.23;;;;;;;;;;5009156;28;20206;-77
2021/04/17 02:47:12;;;;;;;4.27;2.20;;;;;;;;;;5005025;28;20190;-77
2021/04/17 02:49:38;;;;;;;5.97;2.90;;;;;;;;;;5005435;28;20333;-76
2021/04/17 02:52:04;;;;;;;6.77;2.70;;;;;;;;;;5002995;28;20614;-77
2021/04/17 02:54:29;;;;;;;5.47;3.10;;;;;;;;;;5005062;28;20200;-77
2021/04/17 02:56:54;;;;;;;3.57;2.50;;;;;;;;;;5008033;28;20216;-77
2021/04/17 02:59:19;;;;;;;5.63;2.73;;;;;;;;;;5000797;28;20207;-77
2021/04/17 03:01:45;;;;;;;5.60;2.50;;;;;;;;;;5007386;28;20187;-77
2021/04/17 03:04:10;;;;;;;4.00;2.30;;;;;;;;;;4996341;28;20696;-77
2021/04/17 03:06:36;;;;;;;5.03;2.60;;;;;;;;;;5003495;28;20187;-77
2021/04/17 03:09:02;;;;;;;4.20;2.27;;;;;;;;;;5007164;28;20211;-76
2021/04/17 03:11:27;;;;;;;5.33;2.37;;;;;;;;;;5002134;28;20762;-77
2021/04/17 03:13:53;;;;;;;2.43;2.10;;;;;;;;;;5008557;28;20187;-76
2021/04/17 03:16:18;;;;;;;3.73;2.30;;;;;;;;;;4999029;28;20200;-77
2021/04/17 03:18:44;;;;;;;4.33;2.53;;;;;;;;;;5002222;28;20295;-77
2021/04/17 03:21:09;;;;;;;3.40;2.30;;;;;;;;;;5002835;28;20192;-77
2021/04/17 03:23:34;;;;;;;4.70;2.33;;;;;;;;;;5010326;28;20656;-77
2021/04/17 03:25:59;;;;;;;3.53;2.00;;;;;;;;;;5006416;28;20180;-77
2021/04/17 03:28:25;;;;;;;3.60;2.30;;;;;;;;;;5005814;28;20196;-76
2021/04/17 03:30:51;;;;;;;4.20;2.20;;;;;;;;;;4998065;28;20192;-75
2021/04/17 03:33:16;;;;;;;3.30;2.00;;;;;;;;;;5008535;28;20214;-77
2021/04/17 03:35:41;;;;;;;3.33;2.03;;;;;;;;;;5007262;28;20789;-78
2021/04/17 03:38:06;;;;;;;2.53;1.90;;;;;;;;;;5001676;28;20210;-78
2021/04/17 03:40:32;;;;;;;6.30;2.30;;;;;;;;;;5004642;28;20226;-76
2021/04/17 03:42:57;;;;;;;3.53;1.93;;;;;;;;;;5004905;28;20262;-76
2021/04/17 03:45:23;;;;;;;3.47;1.93;;;;;;;;;;5005937;28;20183;-77
2021/04/17 03:47:49;;;;;;;4.93;2.50;;;;;;;;;;5007487;28;20837;-78
2021/04/17 03:50:15;;;;;;;3.33;2.00;;;;;;;;;;5009032;28;20278;-77
2021/04/17 03:52:40;;;;;;;6.23;2.40;;;;;;;;;;5009201;28;20678;-76
2021/04/17 03:55:08;;;;;;;4.07;2.17;;;;;;;;;;5007353;28;20281;-77
2021/04/17 03:57:34;;;;;;;4.53;2.03;;;;;;;;;;4999659;28;20195;-75
2021/04/17 04:00:00;;;;;;;4.50;1.90;;;;;;;;;;5007286;28;20693;-77
2021/04/17 04:02:26;;;;;;;4.50;2.30;;;;;;;;;;5005671;28;20280;-77
2021/04/17 04:04:51;;;;;;;3.53;2.43;;;;;;;;;;5001388;28;20650;-77
2021/04/17 04:07:16;;;;;;;5.83;2.50;;;;;;;;;;5002418;28;20195;-77
2021/04/17 04:09:42;;;;;;;4.33;2.37;;;;;;;;;;5003779;28;20763;-77
2021/04/17 04:12:07;;;;;;;6.60;2.30;;;;;;;;;;5002279;28;20191;-77
2021/04/17 04:14:33;;;;;;;4.30;2.53;;;;;;;;;;5004928;28;20751;-77
2021/04/17 04:16:59;;;;;;;6.63;2.17;;;;;;;;;;5008405;28;20239;-75
2021/04/17 04:19:24;;;;;;;5.47;2.77;;;;;;;;;;5000623;28;20309;-75
2021/04/17 04:21:49;;;;;;;6.30;2.40;;;;;;;;;;4995446;28;20184;-77
2021/04/17 04:24:14;;;;;;;6.23;2.40;;;;;;;;;;4995666;28;20196;-76
2021/04/17 04:26:40;;;;;;;3.67;2.03;;;;;;;;;;5001056;28;20712;-77
2021/04/17 04:29:06;;;;;;;6.00;2.13;;;;;;;;;;5002830;28;20215;-77
2021/04/17 04:31:31;;;;;;;6.17;2.10;;;;;;;;;;5000437;28;20278;-77
2021/04/17 04:33:56;;;;;;;5.37;1.87;;;;;;;;;;4998730;28;20274;-77
2021/04/17 04:36:21;;;;;;;4.40;1.77;;;;;;;;;;5009090;28;20704;-77
2021/04/17 04:38:47;;;;;;;2.80;2.00;;;;;;;;;;5009482;28;20244;-77
2021/04/17 04:41:12;;;;;;;5.33;2.20;;;;;;;;;;5004310;28;20196;-77
2021/04/17 04:43:38;;;;;;;4.33;1.90;;;;;;;;;;5009420;28;20271;-77
2021/04/17 04:46:03;;;;;;;2.93;2.20;;;;;;;;;;5010692;28;20164;-77
2021/04/17 04:48:29;;;;;;;3.60;2.17;;;;;;;;;;5007189;28;20191;-77
2021/04/17 04:50:54;;;;;;;5.97;1.90;;;;;;;;;;5009428;28;20191;-77
2021/04/17 04:53:20;;;;;;;3.63;1.90;;;;;;;;;;5006059;28;20192;-78
2021/04/17 04:55:45;;;;;;;2.97;1.90;;;;;;;;;;5004555;28;20243;-77
2021/04/17 04:58:10;;;;;;;2.83;1.93;;;;;;;;;;5005590;28;20916;-77
2021/04/17 05:00:36;;;;;;;4.63;2.10;;;;;;;;;;5004637;28;20219;-77
2021/04/17 05:03:01;;;;;;;2.43;1.77;;;;;;;;;;5011262;28;20199;-78
2021/04/17 05:05:26;;;;;;;4.73;2.27;;;;;;;;;;5009939;28;20203;-77
2021/04/17 05:07:52;;;;;;;6.03;2.10;;;;;;;;;;5008229;28;20619;-77
2021/04/17 05:10:17;;;;;;;4.93;2.20;;;;;;;;;;5005483;28;20211;-78
2021/04/17 05:12:42;;;;;;;5.50;2.20;;;;;;;;;;5008686;28;20198;-77
2021/04/17 05:15:08;;;;;;;3.03;2.00;;;;;;;;;;5003141;28;20211;-77
2021/04/17 05:17:33;;;;;;;4.70;2.37;;;;;;;;;;4999555;28;20196;-77
2021/04/17 05:19:58;;;;;;;4.97;2.00;;;;;;;;;;5008454;28;20218;-77
2021/04/17 05:22:24;;;;;;;7.80;2.30;;;;;;;;;;5002990;28;20222;-78
2021/04/17 05:24:50;;;;;;;7.57;2.33;;;;;;;;;;5009482;28;20700;-75
2021/04/17 05:27:15;;;;;;;7.07;2.47;;;;;;;;;;5010641;28;20199;-77
2021/04/17 05:29:41;;;;;;;5.73;2.23;;;;;;;;;;5008114;28;20293;-77
2021/04/17 05:32:07;;;;;;;11.37;2.60;;;;;;;;;;5010832;28;20202;-77
2021/04/17 05:34:33;;;;;;;4.53;1.90;;;;;;;;;;5008631;28;20191;-76
2021/04/17 05:36:58;;;;;;;6.77;2.90;;;;;;;;;;5005488;28;20270;-75
2021/04/17 05:39:23;;;;;;;8.90;2.50;;;;;;;;;;5002878;28;20227;-77
2021/04/17 05:41:49;;;;;;;7.07;2.20;;;;;;;;;;5007882;28;20198;-77
2021/04/17 05:44:14;;;;;;;5.67;2.50;;;;;;;;;;5006407;28;20191;-77
2021/04/17 05:46:43;;;;;;;5.40;2.37;;;;;;;;;;5006700;28;20188;-76
2021/04/17 05:49:10;;;;;;;6.27;2.50;;;;;;;;;;5003683;28;20211;-77
2021/04/17 05:51:38;;;;;;;6.83;2.50;;;;;;;;;;5012610;28;20970;-77
2021/04/17 05:54:04;;;;;;;5.13;2.47;;;;;;;;;;5011628;28;20226;-77
2021/04/17 05:56:29;;;;;;;7.23;2.80;;;;;;;;;;5008790;28;20802;-76
2021/04/17 05:58:54;;;;;;;8.67;2.87;;;;;;;;;;5002485;28;20215;-77
2021/04/17 06:01:20;;;;;;;5.80;2.67;;;;;;;;;;5006389;28;20199;-77
2021/04/17 06:03:45;;;;;;;9.33;2.83;;;;;;;;;;5003943;28;20200;-78
2021/04/17 06:06:10;;;;;;;7.77;3.00;;;;;;;;;;5003119;28;20262;-77
2021/04/17 06:08:37;;;;;;;6.07;3.00;;;;;;;;;;5007168;28;20215;-77
2021/04/17 06:11:02;;;;;;;7.60;3.20;;;;;;;;;;5010619;28;20218;-77
2021/04/17 06:13:27;;;;;;;7.77;2.93;;;;;;;;;;5009305;28;20199;-76
2021/04/17 06:15:53;;;;;;;7.77;2.80;;;;;;;;;;5008962;28;20219;-77
2021/04/17 06:18:18;;;;;;;7.73;2.93;;;;;;;;;;5011910;28;20191;-76
2021/04/17 06:20:44;;;;;;;6.43;3.20;;;;;;;;;;5008838;28;20198;-77
2021/04/17 06:23:09;;;;;;;8.13;3.13;;;;;;;;;;5009847;28;20187;-77
2021/04/17 06:25:34;;;;;;;8.67;3.10;;;;;;;;;;5010059;28;20681;-77
2021/04/17 06:27:59;;;;;;;7.90;3.30;;;;;;;;;;5007699;28;20187;-77
2021/04/17 06:30:25;;;;;;;10.43;3.87;;;;;;;;;;5007964;28;20243;-77
2021/04/17 06:32:50;;;;;;;8.27;3.33;;;;;;;;;;5006277;28;20274;-76
2021/04/17 06:35:16;;;;;;;8.80;3.43;;;;;;;;;;5006123;28;20212;-76
2021/04/17 06:37:41;;;;;;;8.10;3.33;;;;;;;;;;5001853;28;20200;-77
2021/04/17 06:40:07;;;;;;;8.93;2.87;;;;;;;;;;5009154;28;20695;-77
2021/04/17 06:42:35;;;;;;;7.33;3.10;;;;;;;;;;5008854;28;20191;-78
2021/04/17 06:45:01;;;;;;;8.63;3.50;;;;;;;;;;5001822;28;20234;-77
2021/04/17 06:47:27;;;;;;;9.33;3.80;;;;;;;;;;5001562;28;20207;-76
2021/04/17 06:49:53;;;;;;;9.37;4.30;;;;;;;;;;4997980;28;20238;-77
2021/04/17 06:52:20;;;;;;;9.13;3.23;;;;;;;;;;5001945;28;20192;-77
2021/04/17 06:54:46;;;;;;;7.80;3.07;;;;;;;;;;5003753;28;20206;-77
2021/04/17 06:57:13;;;;;;;6.90;3.20;;;;;;;;;;5008404;28;20220;-78
2021/04/17 06:59:38;;;;;;;4.97;2.70;;;;;;;;;;5003240;28;20215;-78
2021/04/17 07:02:04;;;;;;;5.87;2.87;;;;;;;;;;4999343;28;20230;-77
2021/04/17 07:04:29;;;;;;;6.47;3.23;;;;;;;;;;5007404;28;20191;-77
2021/04/17 07:06:55;;;;;;;4.97;3.00;;;;;;;;;;5008202;28;20194;-78
2021/04/17 07:09:21;;;;;;;6.83;2.80;;;;;;;;;;5005132;28;20280;-77
2021/04/17 07:11:47;;;;;;;6.90;3.07;;;;;;;;;;5001289;28;20648;-76
2021/04/17 07:14:14;;;;;;;8.70;3.03;;;;;;;;;;5008789;28;20190;-77
2021/04/17 07:17:02;;;;;;;7.07;3.20;;;;;;;;;;5005704;28;20211;-77
2021/04/17 07:19:42;;;;;;;7.47;2.80;;;;;;;;;;5004736;28;20231;-77
2021/04/17 07:22:24;;;;;;;4.67;2.87;;;;;;;;;;4998723;28;20646;-77
2021/04/17 07:24:54;;;;;;;6.33;2.90;;;;;;;;;;5006154;28;20679;-77
2021/04/17 07:27:35;;;;;;;11.83;2.83;;;;;;;;;;5006351;28;20200;-78
2021/04/17 07:30:06;;;;;;;7.27;2.80;;;;;;;;;;5005591;28;20559;-77
2021/04/17 07:32:31;;;;;;;6.87;3.27;;;;;;;;;;5001358;28;20189;-77
2021/04/17 07:35:14;;;;;;;11.83;3.10;;;;;;;;;;4995201;28;20192;-77
2021/04/17 07:37:41;;;;;;;6.87;3.00;;;;;;;;;;4999256;28;20195;-76
2021/04/17 07:40:16;;;;;;;8.70;3.17;;;;;;;;;;4998033;28;20211;-75
2021/04/17 07:42:43;;;;;;;6.50;3.20;;;;;;;;;;5006404;28;20245;-77
2021/04/17 07:45:23;;;;;;;6.33;3.20;;;;;;;;;;5005993;28;20195;-77
2021/04/17 07:47:52;;;;;;;5.30;2.87;;;;;;;;;;5003636;28;20659;-76
2021/04/17 07:50:18;;;;;;;5.20;2.70;;;;;;;;;;4995648;28;20330;-78
2021/04/17 07:52:43;;;;;;;6.70;2.90;;;;;;;;;;5010425;28;20194;-77
2021/04/17 07:55:11;;;;;;;3.93;2.73;;;;;;;;;;5009301;28;20191;-78
2021/04/17 07:57:54;;;;;;;6.37;2.90;;;;;;;;;;5009820;28;20190;-77
2021/04/17 08:00:20;;;;;;;6.33;3.30;;;;;;;;;;5002649;28;20854;-77
2021/04/17 08:02:47;;;;;;;8.70;3.57;;;;;;;;;;5005022;28;20192;-78
2021/04/17 08:05:14;;;;;;;6.60;2.63;;;;;;;;;;5004659;28;20187;-78
2021/04/17 08:07:40;;;;;;;6.73;3.07;;;;;;;;;;5008884;28;20191;-77
2021/04/17 08:10:09;;;;;;;5.20;3.10;;;;;;;;;;5005656;28;20218;-78
2021/04/17 08:12:37;;;;;;;6.33;2.93;;;;;;;;;;5007616;28;20219;-78
2021/04/17 08:15:09;;;;;;;5.93;3.10;;;;;;;;;;5005816;28;20446;-78
2021/04/17 08:17:38;;;;;;;5.78;3.10;;;;;;;;;;5013383;28;20270;-78
2021/04/17 08:20:04;;;;;;;8.07;3.15;;;;;;;;;;5005353;28;20228;-78
2021/04/17 08:22:30;;;;;;;7.50;3.33;;;;;;;;;;5003684;28;20225;-77
2021/04/17 08:24:55;;;;;;;5.50;3.38;;;;;;;;;;5011459;28;20210;-79
2021/04/17 08:27:21;;;;;;;6.07;3.70;;;;;;;;;;5005216;28;20637;-77
2021/04/17 08:29:53;;;;;;;5.63;3.33;;;;;;;;;;5012174;28;20241;-77
2021/04/17 08:32:29;;;;;;;8.20;3.83;;;;;;;;;;5011799;28;20183;-78
2021/04/17 08:35:06;;;;;;;6.88;3.80;;;;;;;;;;5013879;28;20691;-78
2021/04/17 08:37:33;;;;;;;4.47;3.20;;;;;;;;;;4999083;28;20238;-78
2021/04/17 08:40:00;;;;;;;9.10;4.15;;;;;;;;;;5004950;28;20263;-78
2021/04/17 08:42:49;;;;;;;6.28;3.60;;;;;;;;;;5011205;28;20242;-78
2021/04/17 08:45:15;;;;;;;7.47;3.30;;;;;;;;;;5010423;28;20939;-77
2021/04/17 08:47:51;;;;;;;7.35;3.60;;;;;;;;;;5013061;28;20808;-78
2021/04/17 08:50:24;;;;;;;7.78;4.15;;;;;;;;;;5010533;28;20350;-78
2021/04/17 08:52:57;;;;;;;8.10;3.85;;;;;;;;;;5014006;28;20195;-78
2021/04/17 08:55:23;;;;;;;8.50;4.47;;;;;;;;;;5008784;28;20211;-78
2021/04/17 08:58:11;;;;;;;6.47;3.50;;;;;;;;;;5012115;28;20551;-78
2021/04/17 09:00:38;;;;;;;8.13;3.70;;;;;;;;;;5003625;28;20227;-77
2021/04/17 09:03:04;;;;;;;7.32;3.63;;;;;;;;;;5009985;28;20226;-78
2021/04/17 09:05:46;;;;;;;5.45;3.13;;;;;;;;;;5013156;28;20622;-79
2021/04/17 09:08:15;;;;;;;8.07;3.58;;;;;;;;;;5011708;28;20183;-78
2021/04/17 09:10:42;;;;;;;7.22;4.00;;;;;;;;;;5009795;28;20242;-80
2021/04/17 09:13:27;;;;;;;7.88;3.50;;;;;;;;;;5010897;28;20274;-76
2021/04/17 09:15:53;;;;;;;7.32;3.28;;;;;;;;;;4996844;28;20234;-77
2021/04/17 09:18:34;;;;;;;7.45;3.45;;;;;;;;;;5000537;28;20227;-76
2021/04/17 09:21:00;;;;;;;6.65;3.75;;;;;;;;;;5007079;28;20658;-76
2021/04/17 09:23:46;;;;;;;4.63;3.13;;;;;;;;;;4995510;28;20219;-77
2021/04/17 09:26:30;;;;;;;6.70;3.20;;;;;;;;;;5007279;28;20187;-77
2021/04/17 09:28:57;;;;;;;7.50;3.30;;;;;;;;;;5002994;28;20277;-76
2021/04/17 09:31:23;;;;;;;6.90;3.07;;;;;;;;;;5003465;28;20192;-76
2021/04/17 09:34:07;;;;;;;5.33;3.30;;;;;;;;;;5009850;28;20179;-76
2021/04/17 09:36:32;;;;;;;6.47;3.17;;;;;;;;;;5001441;28;20202;-76
2021/04/17 09:38:59;;;;;;;9.43;3.53;;;;;;;;;;5008671;28;21098;-75
2021/04/17 09:41:44;;;;;;;5.87;3.40;;;;;;;;;;5001116;28;20290;-78
2021/04/17 09:44:11;;;;;;;8.07;3.00;;;;;;;;;;5007105;28;20206;-77
2021/04/17 09:46:36;;;;;;;7.50;3.40;;;;;;;;;;5009603;28;20368;-77
2021/04/17 09:49:02;;;;;;;5.50;3.07;;;;;;;;;;5005399;28;20231;-78
2021/04/17 09:51:28;;;;;;;4.87;3.00;;;;;;;;;;5010980;28;20679;-79
2021/04/17 09:54:00;;;;;;;10.23;3.33;;;;;;;;;;5009473;28;20211;-76
2021/04/17 09:56:40;;;;;;;4.73;2.83;;;;;;;;;;5002859;28;20227;-77
2021/04/17 09:59:12;;;;;;;4.43;2.90;;;;;;;;;;5010569;28;20198;-77
2021/04/17 10:01:37;;;;;;;7.07;2.90;;;;;;;;;;5004204;28;20275;-78
2021/04/17 10:04:04;;;;;;;5.03;2.80;;;;;;;;;;5002018;28;20302;-76
2021/04/17 10:06:32;;;;;;;7.83;2.90;;;;;;;;;;5004153;28;20605;-79
2021/04/17 10:09:06;;;;;;;5.23;3.13;;;;;;;;;;5002090;28;20767;-77
2021/04/17 10:11:31;;;;;;;3.67;2.47;;;;;;;;;;5001559;28;20194;-76
2021/04/17 10:13:57;;;;;;;4.23;2.20;;;;;;;;;;5001376;28;20222;-75
2021/04/17 10:16:29;;;;;;;3.63;2.43;;;;;;;;;;5009270;28;20207;-76
2021/04/17 10:18:55;;;;;;;3.00;2.20;;;;;;;;;;5007990;28;20561;-78
2021/04/17 10:21:30;;;;;;;4.23;2.40;;;;;;;;;;5000296;28;20200;-77
2021/04/17 10:24:16;;;;;;;4.57;2.30;;;;;;;;;;5009127;28;20206;-75
2021/04/17 10:27:09;;;;;;;4.37;2.40;;;;;;;;;;5000805;28;20191;-76
2021/04/17 10:29:37;;;;;;;6.00;2.30;;;;;;;;;;5007332;28;20819;-77
2021/04/17 10:32:06;;;;;;;5.13;2.72;;;;;;;;;;5000499;28;20738;-75
2021/04/17 10:34:32;;;;;;;5.60;2.50;;;;;;;;;;5006959;28;20191;-75
2021/04/17 10:37:05;;;;;;;7.13;2.83;;;;;;;;;;5005681;28;20215;-76
2021/04/17 10:39:30;;;;;;;6.07;2.70;;;;;;;;;;5002365;28;20211;-77
2021/04/17 10:44:33;;;;;;;5.40;3.00;;;;;;;;;;1467329;26;20240;-49
2021/04/17 10:47:05;;;;;;;4.07;2.70;;;;;;;;;;4971462;28;20212;-48
2021/04/17 10:49:37;;;;;;;5.07;3.10;;;;;;;;;;5032318;23;20260;-49
2021/04/17 10:52:23;;;;;;;6.97;2.63;;;;;;;;;;5019382;28;20198;-47
2021/04/17 10:54:50;;;;;;;6.43;2.77;;;;;;;;;;5025411;28;21269;-47
2021/04/17 10:57:20;;;;;;;4.40;2.43;;;;;;;;;;5026013;28;20214;-47
2021/04/17 11:00:06;;;;;;;4.97;2.90;;;;;;;;;;5023345;28;20702;-49
2021/04/17 11:02:40;;;;;;;4.80;2.87;;;;;;;;;;5017970;28;20197;-48
2021/04/17 11:05:06;;;;;;;5.73;2.53;;;;;;;;;;5020145;28;20590;-49
2021/04/17 11:07:39;;;;;;;5.40;2.50;;;;;;;;;;5021953;28;20187;-49
2021/04/17 11:10:07;;;;;;;5.03;2.90;;;;;;;;;;5026140;28;20249;-48
2021/04/17 11:12:37;;;;;;;4.83;2.80;;;;;;;;;;5018464;28;20191;-47
2021/04/17 11:15:25;;;;;;;5.07;2.67;;;;;;;;;;5039560;28;20290;-48
2021/04/17 11:18:10;;;;;;;3.57;2.83;;;;;;;;;;5025590;28;20569;-48
2021/04/17 11:20:55;;;;;;;8.77;2.87;;;;;;;;;;5020002;28;20185;-47
2021/04/17 11:23:44;;;;;;;5.17;2.67;;;;;;;;;;5017043;28;20686;-49
2021/04/17 11:26:25;;;;;;;4.30;2.60;;;;;;;;;;5024516;28;20274;-47
2021/04/17 11:28:53;;;;;;;4.57;2.47;;;;;;;;;;5018641;28;20312;-48
2021/04/17 11:31:24;;;;;;;5.07;2.10;;;;;;;;;;5020606;28;20656;-47
2021/04/17 11:33:51;;;;;;;4.80;1.90;;;;;;;;;;5021657;28;20658;-49
2021/04/17 11:36:20;;;;;;;3.87;1.90;;;;;;;;;;5022658;28;20206;-48
2021/04/17 11:38:45;;;;;;;3.53;1.77;;;;;;;;;;5022701;28;20218;-50
2021/04/17 11:41:13;;;;;;;2.07;1.77;;;;;;;;;;5018193;28;20285;-47
2021/04/17 11:43:40;;;;;;;4.53;1.77;;;;;;;;;;5026082;28;20214;-49
2021/04/17 11:46:06;;;;;;;5.77;2.27;;;;;;;;;;5023572;28;20175;-47
2021/04/17 11:48:31;;;;;;;3.70;1.80;;;;;;;;;;5025630;28;20232;-47
2021/04/17 11:51:01;;;;;;;4.30;1.77;;;;;;;;;;5024149;28;20182;-47
2021/04/17 11:53:26;;;;;;;3.20;2.10;;;;;;;;;;5026098;28;20651;-48
2021/04/17 11:55:52;;;;;;;5.03;2.00;;;;;;;;;;5011228;28;20225;-48
2021/04/17 11:58:19;;;;;;;4.73;1.80;;;;;;;;;;5020443;28;20579;-47
2021/04/17 12:00:47;;;;;;;4.43;2.00;;;;;;;;;;5022297;28;20194;-48
2021/04/17 12:03:15;;;;;;;4.10;2.03;;;;;;;;;;5021451;28;20198;-47
2021/04/17 12:05:42;;;;;;;3.50;2.30;;;;;;;;;;5023124;28;20187;-48
2021/04/17 12:08:09;;;;;;;5.70;2.33;;;;;;;;;;5024794;28;20238;-47
2021/04/17 12:10:35;;;;;;;3.97;2.10;;;;;;;;;;5020608;28;20226;-48
2021/04/17 12:13:02;;;;;;;2.53;2.33;;;;;;;;;;5020068;28;20187;-49
2021/04/17 12:15:32;;;;;;;3.47;2.30;;;;;;;;;;5019591;28;20711;-48
2021/04/17 12:17:57;;;;;;;3.77;2.03;;;;;;;;;;5019377;28;20236;-48
2021/04/17 12:20:22;;;;;;;5.67;2.40;;;;;;;;;;5021427;28;20651;-47
2021/04/17 12:22:48;;;;;;;6.07;2.97;;;;;;;;;;5010933;28;20468;-47
2021/04/17 12:25:17;;;;;;;3.10;2.20;;;;;;;;;;5015184;28;20682;-47
2021/04/17 12:27:48;;;;;;;5.40;2.23;;;;;;;;;;5014587;28;20278;-47
2021/04/17 12:30:18;;;;;;;4.80;2.53;;;;;;;;;;5019592;28;20551;-47
2021/04/17 12:32:43;;;;;;;4.87;2.70;;;;;;;;;;5021268;28;20221;-48
2021/04/17 12:35:14;;;;;;;3.70;2.50;;;;;;;;;;5031205;28;20671;-48
2021/04/17 12:37:40;;;;;;;4.43;2.20;;;;;;;;;;5023811;28;20183;-48
2021/04/17 12:40:07;;;;;;;4.13;2.40;;;;;;;;;;5029143;28;20199;-47
2021/04/17 12:42:33;;;;;;;3.27;2.23;;;;;;;;;;5023752;28;20582;-47
2021/04/17 12:44:58;;;;;;;5.93;2.23;;;;;;;;;;5026519;28;20193;-49
2021/04/17 12:47:28;;;;;;;3.63;2.60;;;;;;;;;;5031242;28;20209;-47
2021/04/17 12:49:56;;;;;;;5.63;2.40;;;;;;;;;;5032187;28;20422;-47
2021/04/17 12:52:21;;;;;;;4.47;2.60;;;;;;;;;;5031281;28;20226;-49
2021/04/17 12:54:46;;;;;;;4.33;2.60;;;;;;;;;;5026121;28;20214;-48
2021/04/17 12:57:14;;;;;;;5.57;2.40;;;;;;;;;;5020260;28;20238;-48
2021/04/17 12:59:41;;;;;;;7.63;2.87;;;;;;;;;;5024233;28;20298;-48
2021/04/17 13:02:11;;;;;;;4.93;2.63;;;;;;;;;;5024382;28;20191;-48
2021/04/17 13:04:39;;;;;;;6.90;2.77;;;;;;;;;;5028421;28;20202;-48
2021/04/17 13:07:04;;;;;;;3.20;2.73;;;;;;;;;;5023262;28;20395;-48
2021/04/17 13:09:32;;;;;;;4.47;2.53;;;;;;;;;;5029943;28;20635;-48
2021/04/17 13:11:57;;;;;;;7.10;2.73;;;;;;;;;;5025187;28;20397;-48
2021/04/17 13:14:25;;;;;;;4.33;2.70;;;;;;;;;;5025939;28;20195;-47
2021/04/17 13:16:53;;;;;;;4.43;2.63;;;;;;;;;;5026175;28;20527;-50
2021/04/17 13:19:20;;;;;;;3.93;2.47;;;;;;;;;;5019974;28;20595;-48
2021/04/17 13:21:45;;;;;;;4.20;2.80;;;;;;;;;;5027401;28;20248;-48
2021/04/17 13:24:11;;;;;;;5.70;3.00;;;;;;;;;;5024512;28;20186;-46
2021/04/17 13:26:39;;;;;;;4.50;2.77;;;;;;;;;;5023071;28;20562;-47
2021/04/17 13:29:04;;;;;;;4.70;2.70;;;;;;;;;;5022385;28;20198;-47
2021/04/17 13:31:29;;;;;;;5.23;3.10;;;;;;;;;;5022905;28;20576;-48
2021/04/17 13:33:59;;;;;;;5.47;2.93;;;;;;;;;;5023218;28;20580;-50
2021/04/17 13:36:25;;;;;;;3.67;2.73;;;;;;;;;;5017511;28;20718;-47
2021/04/17 13:38:50;;;;;;;5.70;2.73;;;;;;;;;;5015388;28;20207;-47
2021/04/17 13:41:23;;;;;;;5.23;3.30;;;;;;;;;;5017978;28;20860;-46
2021/04/17 13:43:48;;;;;;;4.73;2.83;;;;;;;;;;5018607;28;20726;-49
2021/04/17 13:46:15;;;;;;;4.43;3.00;;;;;;;;;;5033481;28;20190;-46
2021/04/17 13:48:46;;;;;;;5.93;2.90;;;;;;;;;;5018099;28;20214;-47
2021/04/17 13:51:16;;;;;;;5.73;3.40;;;;;;;;;;5020831;28;20229;-47
2021/04/17 13:53:41;;;;;;;6.17;3.07;;;;;;;;;;5021633;28;20202;-47
2021/04/17 13:56:11;;;;;;;9.67;3.33;;;;;;;;;;5022187;28;20202;-49
2021/04/17 13:58:41;;;;;;;5.83;3.30;;;;;;;;;;5018203;28;20809;-48
2021/04/17 14:01:07;;;;;;;5.23;2.70;;;;;;;;;;5040996;28;20202;-48
2021/04/17 14:03:37;;;;;;;4.07;2.90;;;;;;;;;;5026538;28;20604;-47
2021/04/17 14:06:06;;;;;;;5.90;3.10;;;;;;;;;;5017202;28;20274;-47
2021/04/17 14:08:36;;;;;;;4.53;2.93;;;;;;;;;;5018922;28;20301;-46
2021/04/17 14:11:04;;;;;;;5.00;3.30;;;;;;;;;;5020426;28;20678;-48
2021/04/17 14:13:31;;;;;;;4.93;3.13;;;;;;;;;;5025404;28;20516;-47
2021/04/17 14:15:56;;;;;;;6.45;3.80;;;;;;;;;;5017366;28;20333;-48
2021/04/17 14:18:22;;;;;;;5.73;4.10;;;;;;;;;;5018909;28;20214;-46
2021/04/17 14:20:48;;;;;;;6.93;3.63;;;;;;;;;;5029875;28;20218;-48
2021/04/17 14:23:16;;;;;;;5.67;3.27;;;;;;;;;;5012766;28;20210;-48
2021/04/17 14:25:41;;;;;;;8.97;4.47;;;;;;;;;;5025772;28;20186;-46
2021/04/17 14:28:06;;;;;;;5.10;3.65;;;;;;;;;;5024884;28;20293;-47
2021/04/17 14:30:32;;;;;;;4.40;3.30;;;;;;;;;;5022674;28;20725;-47
2021/04/17 14:32:57;;;;;;;6.67;3.70;;;;;;;;;;5024219;28;20197;-47
2021/04/17 14:35:25;;;;;;;6.47;4.30;;;;;;;;;;5020943;28;20221;-48
2021/04/17 14:37:51;;;;;;;6.97;4.10;;;;;;;;;;5024579;28;20252;-49
2021/04/17 14:40:17;;;;;;;7.18;4.28;;;;;;;;;;5025297;28;20651;-47
2021/04/17 14:42:42;;;;;;;10.47;4.10;;;;;;;;;;5027073;28;20234;-48
2021/04/17 14:45:11;;;;;;;6.23;4.07;;;;;;;;;;5020443;28;20187;-47
2021/04/17 14:47:39;;;;;;;6.90;4.13;;;;;;;;;;5021396;28;20187;-47
2021/04/17 14:50:11;;;;;;;9.07;5.00;;;;;;;;;;5025787;28;20333;-46
2021/04/17 14:52:39;;;;;;;5.87;4.63;;;;;;;;;;5027288;28;20190;-47